Time;durP1;ratioP1;P1;durP2;ratioP2;P2;SDS_P1;SDS_P2;PMS_P1;PMS_P2;Temp;Humidity;BMP_temperature;BMP_pressure;BME280_temperature;BME280_humidity;BME280_pressure;Samples;Min_cycle;Max_cycle;Signal;HPM_P1;HPM_P2
2021/06/01 00:01:19;;;;;;;5.53;3.28;;;333.30;2329.60;;;;;;5069643;28;20124;-61
2021/06/01 00:03:45;;;;;;;5.45;2.67;;;333.40;2329.60;;;;;;5069848;28;20061;-64
2021/06/01 00:06:11;;;;;;;4.50;3.03;;;333.40;2329.60;;;;;;5069927;28;20438;-64
2021/06/01 00:08:37;;;;;;;6.30;4.05;;;333.30;2329.60;;;;;;5069658;28;20020;-61
2021/06/01 00:11:04;;;;;;;8.85;3.38;;;333.20;2329.60;;;;;;5069716;28;20374;-61
2021/06/01 00:13:30;;;;;;;4.82;3.42;;;333.30;2329.60;;;;;;5069556;28;20036;-61
2021/06/01 00:15:56;;;;;;;8.20;2.80;;;333.20;2329.60;;;;;;5069726;28;20020;-61
2021/06/01 00:18:22;;;;;;;4.00;3.28;;;333.20;2329.60;;;;;;5069921;28;20021;-60
2021/06/01 00:20:47;;;;;;;5.00;3.30;;;333.20;2329.60;;;;;;5069522;28;20070;-60
2021/06/01 00:23:13;;;;;;;4.70;3.38;;;333.20;2329.60;;;;;;5069755;28;20039;-59
2021/06/01 00:25:39;;;;;;;6.13;3.72;;;333.20;2329.60;;;;;;5069491;28;20020;-60
2021/06/01 00:28:05;;;;;;;6.15;3.13;;;333.20;2329.60;;;;;;5069631;28;20071;-59
2021/06/01 00:30:30;;;;;;;4.13;3.08;;;333.30;2329.60;;;;;;5069148;28;20462;-61
2021/06/01 00:32:56;;;;;;;5.82;3.60;;;333.10;2329.60;;;;;;5069194;28;20067;-60
2021/06/01 00:35:22;;;;;;;7.47;3.47;;;333.20;2329.60;;;;;;5073269;28;20070;-59
2021/06/01 00:37:47;;;;;;;4.50;2.78;;;333.10;2329.60;;;;;;5073142;28;20438;-60
2021/06/01 00:40:13;;;;;;;6.43;3.53;;;333.10;2329.60;;;;;;5073141;28;20063;-64
2021/06/01 00:42:39;;;;;;;4.53;2.83;;;333.10;2329.60;;;;;;5072743;28;20052;-62
2021/06/01 00:45:06;;;;;;;5.78;2.95;;;333.10;2329.60;;;;;;5073203;28;20070;-61
2021/06/01 00:47:32;;;;;;;4.55;2.88;;;333.00;2329.60;;;;;;5073143;28;20025;-59
2021/06/01 00:49:58;;;;;;;3.90;2.80;;;333.00;2329.60;;;;;;5072831;28;20078;-61
2021/06/01 00:52:23;;;;;;;6.40;3.20;;;333.00;2329.60;;;;;;5072807;28;20040;-60
2021/06/01 00:54:49;;;;;;;6.53;2.63;;;333.10;2329.60;;;;;;5072907;28;20028;-60
2021/06/01 00:57:15;;;;;;;3.55;2.85;;;333.00;2329.60;;;;;;5072940;28;20028;-61
2021/06/01 00:59:41;;;;;;;3.83;2.78;;;332.90;2329.60;;;;;;5072584;28;20029;-60
2021/06/01 01:02:06;;;;;;;4.97;3.15;;;333.00;2329.60;;;;;;5072341;28;20025;-61
2021/06/01 01:04:33;;;;;;;4.40;2.65;;;332.90;2329.60;;;;;;5072859;28;20029;-61
2021/06/01 01:07:17;;;;;;;3.97;2.65;;;332.90;2329.60;;;;;;5072619;28;20031;-64
2021/06/01 01:09:44;;;;;;;4.55;3.08;;;332.90;2329.60;;;;;;5072758;28;20024;-64
2021/06/01 01:12:32;;;;;;;6.43;3.20;;;332.90;2329.60;;;;;;5072465;28;20032;-60
2021/06/01 01:15:01;;;;;;;5.40;3.20;;;332.90;2329.60;;;;;;5072333;28;20085;-60
2021/06/01 01:17:55;;;;;;;4.07;3.08;;;332.90;2329.60;;;;;;5072208;28;20040;-63
2021/06/01 01:20:30;;;;;;;5.10;3.40;;;332.90;2329.60;;;;;;5069525;28;20039;-58
2021/06/01 01:22:58;;;;;;;4.85;3.30;;;332.90;2329.60;;;;;;5072219;28;20073;-61
2021/06/01 01:25:38;;;;;;;4.38;3.05;;;332.90;2329.60;;;;;;5072373;28;20050;-60
2021/06/01 01:28:31;;;;;;;6.00;3.47;;;332.80;2329.60;;;;;;5072352;28;20028;-60
2021/06/01 01:31:02;;;;;;;6.03;3.67;;;332.80;2329.60;;;;;;5071785;28;20427;-62
2021/06/01 01:33:34;;;;;;;4.53;2.90;;;332.90;2329.60;;;;;;5071865;28;20497;-61
2021/06/01 01:36:03;;;;;;;7.43;3.67;;;332.80;2329.60;;;;;;5071875;28;20103;-60
2021/06/01 01:38:30;;;;;;;4.28;3.03;;;308.10;2304.00;;;;;;5071995;28;20102;-61
2021/06/01 01:41:02;;;;;;;6.35;3.58;;;308.00;2304.00;;;;;;5072004;28;20458;-60
2021/06/01 01:43:31;;;;;;;6.68;3.28;;;308.00;2304.00;;;;;;5071634;28;20053;-61
2021/06/01 01:46:21;;;;;;;6.22;3.60;;;308.00;2304.00;;;;;;5071631;28;20135;-61
2021/06/01 01:49:04;;;;;;;4.95;3.60;;;307.90;2304.00;;;;;;5071683;28;20036;-61
2021/06/01 01:51:35;;;;;;;7.03;3.80;;;308.00;2304.00;;;;;;5071384;28;20655;-62
2021/06/01 01:54:06;;;;;;;5.28;3.78;;;308.00;2304.00;;;;;;5053912;28;20127;-60
2021/06/01 01:56:37;;;;;;;7.18;3.88;;;307.90;2304.00;;;;;;5071940;28;20462;-58
2021/06/01 01:59:09;;;;;;;5.10;3.65;;;307.80;2304.00;;;;;;5071991;28;20059;-64
2021/06/01 02:01:36;;;;;;;6.73;4.07;;;307.80;2304.00;;;;;;5071642;28;20032;-59
2021/06/01 02:04:04;;;;;;;5.90;4.13;;;307.80;2304.00;;;;;;5071782;28;20037;-58
2021/06/01 02:06:30;;;;;;;5.75;4.15;;;308.00;2304.00;;;;;;5071366;28;20036;-60
2021/06/01 02:08:56;;;;;;;6.75;4.45;;;307.90;2304.00;;;;;;5071423;28;20048;-60
2021/06/01 02:11:22;;;;;;;6.20;4.30;;;308.00;2304.00;;;;;;5071756;28;20107;-59
2021/06/01 02:13:58;;;;;;;6.50;4.82;;;307.90;2304.00;;;;;;5071346;28;20505;-60
2021/06/01 02:16:24;;;;;;;5.55;3.75;;;307.80;2304.00;;;;;;5071463;28;20017;-59
2021/06/01 02:18:50;;;;;;;7.72;4.40;;;308.00;2304.00;;;;;;5071356;28;20035;-59
2021/06/01 02:21:34;;;;;;;7.70;4.88;;;307.90;2304.00;;;;;;5071125;28;20029;-59
2021/06/01 02:24:07;;;;;;;6.63;4.70;;;307.90;2304.00;;;;;;5071277;28;20035;-60
2021/06/01 02:26:40;;;;;;;6.88;4.63;;;307.90;2304.00;;;;;;5071354;28;20032;-60
2021/06/01 02:29:17;;;;;;;7.20;4.47;;;308.00;2304.00;;;;;;5071005;28;20039;-60
2021/06/01 02:31:46;;;;;;;7.03;4.65;;;308.00;2304.00;;;;;;5070885;28;20062;-60
2021/06/01 02:34:13;;;;;;;7.53;5.10;;;308.00;2304.00;;;;;;5070928;28;20497;-60
2021/06/01 02:36:40;;;;;;;6.85;4.68;;;307.90;2304.00;;;;;;5070773;28;20064;-60
2021/06/01 02:39:06;;;;;;;8.15;4.30;;;307.90;2304.00;;;;;;5070892;28;20021;-59
2021/06/01 02:41:32;;;;;;;6.30;4.40;;;307.80;2304.00;;;;;;5070978;28;20082;-60
2021/06/01 02:44:00;;;;;;;7.47;4.97;;;307.80;2304.00;;;;;;5070481;28;20118;-61
2021/06/01 02:46:26;;;;;;;7.63;5.70;;;307.80;2304.00;;;;;;5070646;28;20382;-60
2021/06/01 02:48:53;;;;;;;8.57;5.82;;;307.80;2304.00;;;;;;5070938;28;20028;-61
2021/06/01 02:51:20;;;;;;;6.53;4.55;;;307.80;2304.00;;;;;;5070749;28;20078;-60
2021/06/01 02:53:54;;;;;;;7.38;5.03;;;307.80;2304.00;;;;;;5070824;28;20024;-61
2021/06/01 02:56:21;;;;;;;7.53;4.75;;;307.70;2304.00;;;;;;5070152;28;20020;-60
2021/06/01 02:58:48;;;;;;;8.57;5.03;;;307.70;2304.00;;;;;;5070712;28;20032;-59
2021/06/01 03:01:19;;;;;;;6.85;5.50;;;307.70;2304.00;;;;;;5070442;28;20359;-60
2021/06/01 03:03:51;;;;;;;11.05;5.88;;;307.70;2304.00;;;;;;5070528;28;20039;-59
2021/06/01 03:06:21;;;;;;;7.38;4.93;;;307.70;2304.00;;;;;;5070603;28;20055;-60
2021/06/01 03:08:47;;;;;;;6.63;5.00;;;307.80;2304.00;;;;;;5070461;28;20029;-60
2021/06/01 03:11:16;;;;;;;9.07;4.95;;;307.80;2304.00;;;;;;5070588;28;20028;-59
2021/06/01 03:13:49;;;;;;;7.28;5.22;;;307.70;2304.00;;;;;;5070350;28;20033;-59
2021/06/01 03:16:16;;;;;;;7.15;5.60;;;307.60;2304.00;;;;;;5070349;28;20021;-60
2021/06/01 03:18:43;;;;;;;8.70;5.43;;;307.60;2304.00;;;;;;5070449;28;20382;-61
2021/06/01 03:21:10;;;;;;;6.90;4.65;;;307.60;2304.00;;;;;;5070220;28;20499;-60
2021/06/01 03:23:36;;;;;;;7.55;5.13;;;307.60;2304.00;;;;;;5070198;28;20020;-60
2021/06/01 03:26:03;;;;;;;7.43;4.53;;;307.70;2304.00;;;;;;5070271;28;20020;-57
2021/06/01 03:28:30;;;;;;;7.18;4.88;;;307.70;2304.00;;;;;;5070079;28;20070;-60
2021/06/01 03:30:56;;;;;;;8.27;4.78;;;307.70;2304.00;;;;;;5069887;28;20033;-59
2021/06/01 03:33:22;;;;;;;8.02;4.30;;;307.60;2304.00;;;;;;5070068;28;20561;-61
2021/06/01 03:35:48;;;;;;;7.22;4.60;;;307.60;2304.00;;;;;;5070109;28;20020;-60
2021/06/01 03:38:14;;;;;;;6.65;4.80;;;307.70;2304.00;;;;;;5070052;28;20421;-60
2021/06/01 03:40:40;;;;;;;5.65;4.43;;;307.80;2304.00;;;;;;5069869;28;20377;-59
2021/06/01 03:43:07;;;;;;;8.20;4.65;;;307.70;2304.00;;;;;;5069915;28;20106;-59
2021/06/01 03:45:33;;;;;;;7.35;4.40;;;307.80;2304.00;;;;;;5070060;28;20032;-62
2021/06/01 03:47:59;;;;;;;5.03;3.92;;;307.80;2304.00;;;;;;5069830;28;20025;-61
2021/06/01 03:50:25;;;;;;;7.15;3.67;;;307.80;2304.00;;;;;;5069960;28;20070;-60
2021/06/01 03:52:51;;;;;;;5.40;3.50;;;307.80;2304.00;;;;;;5069836;28;20120;-61
2021/06/01 03:55:18;;;;;;;4.75;3.55;;;307.80;2304.00;;;;;;5069616;28;20016;-60
2021/06/01 03:57:46;;;;;;;5.97;4.25;;;307.80;2304.00;;;;;;5070018;28;20032;-60
2021/06/01 04:00:14;;;;;;;4.97;3.58;;;307.80;2304.00;;;;;;5069648;28;20024;-61
2021/06/01 04:02:40;;;;;;;4.53;3.60;;;307.90;2304.00;;;;;;5069619;28;20470;-60
2021/06/01 04:05:06;;;;;;;5.00;3.83;;;308.00;2304.00;;;;;;5070100;28;20048;-60
2021/06/01 04:07:32;;;;;;;6.05;3.85;;;307.90;2304.00;;;;;;5052428;28;20355;-61
2021/06/01 04:09:58;;;;;;;5.65;4.00;;;308.10;2304.00;;;;;;5072761;28;20093;-61
2021/06/01 04:12:23;;;;;;;4.45;3.55;;;308.10;2304.00;;;;;;5073794;28;20028;-61
2021/06/01 04:14:49;;;;;;;6.78;3.65;;;308.10;2304.00;;;;;;5073527;28;20082;-58
2021/06/01 04:17:15;;;;;;;9.55;4.13;;;308.10;2304.00;;;;;;5073601;28;20029;-59
2021/06/01 04:19:41;;;;;;;6.55;4.05;;;332.80;2329.60;;;;;;5073362;28;20409;-59
2021/06/01 04:22:06;;;;;;;6.03;3.78;;;332.90;2329.60;;;;;;5073793;28;20033;-58
2021/06/01 04:24:32;;;;;;;7.28;4.10;;;333.00;2329.60;;;;;;5073565;28;20070;-60
2021/06/01 04:26:59;;;;;;;6.05;3.88;;;333.00;2329.60;;;;;;5073319;28;20083;-60
2021/06/01 04:29:26;;;;;;;6.55;3.55;;;333.20;2329.60;;;;;;5073449;28;20020;-60
2021/06/01 04:31:51;;;;;;;7.45;4.65;;;333.30;2329.60;;;;;;5073130;28;20064;-60
2021/06/01 04:34:17;;;;;;;7.97;3.65;;;333.50;2329.60;;;;;;5073326;28;20405;-60
2021/06/01 04:36:43;;;;;;;6.88;3.80;;;333.50;2329.60;;;;;;5073354;28;20482;-59
2021/06/01 04:39:09;;;;;;;8.02;4.25;;;333.50;2329.60;;;;;;5072997;28;20104;-59
2021/06/01 04:41:35;;;;;;;6.20;4.55;;;333.40;2329.60;;;;;;5072994;28;20531;-60
2021/06/01 04:44:01;;;;;;;7.57;4.32;;;333.50;2329.60;;;;;;5072763;28;20041;-59
2021/06/01 04:46:26;;;;;;;5.95;4.30;;;333.70;2329.60;;;;;;5072727;28;20031;-59
2021/06/01 04:48:53;;;;;;;6.25;4.32;;;333.70;2329.60;;;;;;5073035;28;20024;-59
2021/06/01 04:51:20;;;;;;;5.93;4.40;;;333.70;2329.60;;;;;;5072942;28;20056;-60
2021/06/01 04:53:51;;;;;;;6.30;4.18;;;333.50;2329.60;;;;;;5072632;28;20024;-61
2021/06/01 04:56:18;;;;;;;6.05;4.05;;;333.50;2329.60;;;;;;5072671;28;20052;-60
2021/06/01 04:58:44;;;;;;;7.10;4.95;;;333.60;2329.60;;;;;;5072831;28;20032;-59
2021/06/01 05:01:09;;;;;;;8.25;4.82;;;333.50;2329.60;;;;;;5072537;28;20477;-60
2021/06/01 05:03:37;;;;;;;5.32;4.35;;;333.60;2329.60;;;;;;5054304;28;20040;-59
2021/06/01 05:06:03;;;;;;;5.57;4.15;;;333.60;2329.60;;;;;;5072864;28;20059;-59
2021/06/01 05:08:29;;;;;;;5.90;4.47;;;333.70;2329.60;;;;;;5072637;28;20036;-59
2021/06/01 05:10:54;;;;;;;6.18;4.53;;;333.70;2329.60;;;;;;5055053;28;20474;-60
2021/06/01 05:13:20;;;;;;;8.05;4.90;;;333.60;2329.60;;;;;;5072405;28;20131;-61
2021/06/01 05:15:48;;;;;;;6.93;4.70;;;333.70;2329.60;;;;;;5072340;28;20021;-60
2021/06/01 05:18:14;;;;;;;10.20;3.92;;;333.70;2329.60;;;;;;5072526;28;20370;-59
2021/06/01 05:20:40;;;;;;;6.03;4.38;;;333.60;2329.60;;;;;;5071906;28;20025;-60
2021/06/01 05:23:06;;;;;;;9.90;5.03;;;358.40;2329.60;;;;;;5072304;28;20032;-60
2021/06/01 05:25:32;;;;;;;6.47;4.90;;;358.50;2329.60;;;;;;5072337;28;20048;-60
2021/06/01 05:27:58;;;;;;;7.30;4.88;;;358.70;2329.60;;;;;;5071841;28;20021;-61
2021/06/01 05:30:29;;;;;;;7.82;4.97;;;358.90;2329.60;;;;;;5071919;28;20117;-59
2021/06/01 05:33:12;;;;;;;5.82;4.03;;;359.00;2329.60;;;;;;5072209;28;20044;-62
2021/06/01 05:35:55;;;;;;;7.20;4.63;;;359.20;2329.60;;;;;;5072100;28;20025;-62
2021/06/01 05:38:25;;;;;;;6.80;5.03;;;359.00;2329.60;;;;;;5072149;28;20036;-61
2021/06/01 05:40:52;;;;;;;7.40;4.60;;;359.00;2329.60;;;;;;5069199;28;20028;-61
2021/06/01 05:43:18;;;;;;;7.72;4.53;;;359.00;2329.60;;;;;;5069428;28;20051;-61
2021/06/01 05:45:44;;;;;;;8.50;4.97;;;358.90;2329.60;;;;;;5071360;28;20102;-62
2021/06/01 05:48:10;;;;;;;6.32;5.10;;;358.80;2329.60;;;;;;5072254;28;20509;-61
2021/06/01 05:50:37;;;;;;;9.27;4.60;;;358.80;2329.60;;;;;;5071825;28;20070;-61
2021/06/01 05:53:05;;;;;;;6.57;4.82;;;358.80;2329.60;;;;;;5071936;28;20040;-62
2021/06/01 05:55:31;;;;;;;8.45;5.28;;;358.70;2329.60;;;;;;5071604;28;20029;-59
2021/06/01 05:57:57;;;;;;;6.28;4.18;;;358.80;2329.60;;;;;;5071743;28;20044;-59
2021/06/01 06:00:23;;;;;;;12.48;5.35;;;359.00;2329.60;;;;;;5071778;28;20067;-60
2021/06/01 06:02:50;;;;;;;6.35;5.00;;;359.10;2329.60;;;;;;5071556;28;20443;-59
2021/06/01 06:05:16;;;;;;;5.90;4.45;;;384.00;2329.60;;;;;;5071662;28;20046;-59
2021/06/01 06:07:41;;;;;;;8.93;5.25;;;384.40;2329.60;;;;;;5071743;28;20115;-59
2021/06/01 06:10:09;;;;;;;7.10;4.90;;;384.50;2329.60;;;;;;5071472;28;20446;-59
2021/06/01 06:12:35;;;;;;;5.80;4.68;;;384.60;2329.60;;;;;;5071294;28;20123;-60
2021/06/01 06:15:03;;;;;;;11.25;5.75;;;384.70;2329.60;;;;;;5071275;28;20067;-59
2021/06/01 06:17:39;;;;;;;6.28;5.10;;;384.60;2329.60;;;;;;5071061;28;20021;-59
2021/06/01 06:20:06;;;;;;;7.40;4.82;;;384.70;2329.60;;;;;;5071330;28;20514;-59
2021/06/01 06:22:33;;;;;;;9.93;4.90;;;384.70;2329.60;;;;;;5071371;28;20032;-60
2021/06/01 06:24:59;;;;;;;7.60;5.07;;;384.60;2329.60;;;;;;5069398;28;20028;-60
2021/06/01 06:27:25;;;;;;;6.50;4.25;;;384.70;2329.60;;;;;;5061447;28;20021;-67
2021/06/01 06:29:50;;;;;;;7.60;4.68;;;384.70;2329.60;;;;;;5049623;28;20037;-59
2021/06/01 06:32:16;;;;;;;9.48;4.70;;;409.60;2355.20;;;;;;5048379;28;20379;-61
2021/06/01 06:34:42;;;;;;;8.52;5.60;;;409.80;2355.20;;;;;;5049671;28;20037;-59
2021/06/01 06:37:07;;;;;;;7.68;5.72;;;410.00;2355.20;;;;;;5049294;28;20429;-59
2021/06/01 06:39:34;;;;;;;7.90;5.88;;;410.10;2304.00;;;;;;5048914;28;20043;-60
2021/06/01 06:42:00;;;;;;;9.15;5.30;;;410.30;2278.40;;;;;;5048910;28;20376;-59
2021/06/01 06:44:26;;;;;;;6.47;4.80;;;410.50;2304.00;;;;;;5049370;28;20029;-60
2021/06/01 06:49:38;;;;;;;6.50;5.22;;;410.50;2252.80;;;;;;5029209;28;20121;-62
2021/06/01 06:52:08;;;;;;;8.43;5.15;;;435.30;2278.40;;;;;;5029014;28;20136;-59
2021/06/01 06:54:34;;;;;;;9.75;5.47;;;435.20;2252.80;;;;;;5028596;28;20076;-59
2021/06/01 06:57:00;;;;;;;7.25;4.95;;;410.50;2278.40;;;;;;5028598;28;20064;-59
2021/06/01 06:59:25;;;;;;;7.32;4.95;;;410.40;2252.80;;;;;;5028652;28;20547;-60
2021/06/01 07:01:51;;;;;;;6.80;5.10;;;410.40;2278.40;;;;;;5028586;28;20399;-59
2021/06/01 07:04:17;;;;;;;8.65;5.47;;;410.50;2278.40;;;;;;5028528;28;20080;-60
2021/06/01 07:06:47;;;;;;;6.60;5.28;;;410.50;2252.80;;;;;;5028601;28;20038;-60
2021/06/01 07:09:13;;;;;;;7.90;5.38;;;435.40;2201.60;;;;;;5028551;28;20033;-60
2021/06/01 07:11:39;;;;;;;6.97;5.53;;;435.30;2201.60;;;;;;5028334;28;20025;-60
2021/06/01 07:14:10;;;;;;;6.82;5.50;;;435.30;2201.60;;;;;;5028510;28;20037;-59
2021/06/01 07:16:37;;;;;;;8.38;5.45;;;435.50;2176.00;;;;;;5028460;28;20442;-60
2021/06/01 07:19:04;;;;;;;8.10;5.40;;;461.00;2124.80;;;;;;5028226;28;20030;-59
2021/06/01 07:21:30;;;;;;;8.57;5.80;;;461.10;2099.20;;;;;;5028099;28;20033;-60
2021/06/01 07:23:56;;;;;;;7.93;6.07;;;461.10;2150.40;;;;;;5028268;28;20021;-60
2021/06/01 07:26:22;;;;;;;8.02;5.28;;;461.10;2124.80;;;;;;5036392;28;20056;-58
2021/06/01 07:28:47;;;;;;;8.50;6.00;;;461.20;2048.00;;;;;;5050124;28;20024;-60
2021/06/01 07:31:14;;;;;;;7.20;5.53;;;461.30;2048.00;;;;;;5049977;28;20047;-60
2021/06/01 07:33:40;;;;;;;6.97;5.15;;;461.30;2048.00;;;;;;5049953;28;20029;-59
2021/06/01 07:36:06;;;;;;;6.65;5.47;;;461.30;2048.00;;;;;;5050179;28;20017;-65
2021/06/01 07:38:32;;;;;;;8.55;5.60;;;461.30;2022.40;;;;;;5050005;28;20021;-60
2021/06/01 07:40:58;;;;;;;6.65;5.22;;;461.30;2022.40;;;;;;5049934;28;20078;-60
2021/06/01 07:43:24;;;;;;;6.38;5.18;;;461.40;1996.80;;;;;;5049811;28;20045;-60
2021/06/01 07:45:50;;;;;;;6.85;5.07;;;461.50;1996.80;;;;;;5049944;28;20048;-60
2021/06/01 07:48:15;;;;;;;7.70;4.93;;;461.50;1996.80;;;;;;5049830;28;20024;-60
2021/06/01 07:50:41;;;;;;;7.63;5.50;;;461.60;1996.80;;;;;;5049935;28;20067;-60
2021/06/01 07:53:07;;;;;;;8.25;5.72;;;486.40;1971.20;;;;;;5049895;28;20033;-59
2021/06/01 07:55:33;;;;;;;6.68;4.45;;;486.50;1920.00;;;;;;5050081;28;20013;-60
2021/06/01 07:57:58;;;;;;;7.72;5.07;;;486.50;1894.40;;;;;;5049958;28;20482;-60
2021/06/01 08:00:26;;;;;;;7.03;4.75;;;486.70;1868.80;;;;;;5049947;28;21722;-60
2021/06/01 08:02:52;;;;;;;8.43;4.72;;;512.10;1766.40;;;;;;5049787;28;20039;-61
2021/06/01 08:05:19;;;;;;;6.20;4.50;;;563.20;1689.60;;;;;;5049530;28;20020;-60
2021/06/01 08:07:47;;;;;;;5.70;4.38;;;563.30;1587.20;;;;;;5049600;28;20086;-60
2021/06/01 08:10:15;;;;;;;5.55;4.25;;;538.50;1536.00;;;;;;5049585;28;20025;-59
2021/06/01 08:12:41;;;;;;;7.10;4.72;;;538.00;1587.20;;;;;;5049440;28;20044;-59
2021/06/01 08:15:08;;;;;;;6.82;4.82;;;538.30;1561.60;;;;;;5049685;28;20028;-60
2021/06/01 08:17:34;;;;;;;7.20;4.85;;;563.60;1587.20;;;;;;5049746;28;20036;-60
2021/06/01 08:20:14;;;;;;;5.25;3.70;;;563.30;1561.60;;;;;;5049331;28;20383;-58
2021/06/01 08:22:41;;;;;;;6.55;4.18;;;563.20;1561.60;;;;;;5049418;28;20021;-59
2021/06/01 08:25:08;;;;;;;6.53;3.72;;;538.00;1561.60;;;;;;5049348;28;20033;-59
2021/06/01 08:27:34;;;;;;;4.78;3.30;;;537.60;1587.20;;;;;;5049429;28;20532;-59
2021/06/01 08:29:59;;;;;;;5.00;3.78;;;512.50;1612.80;;;;;;5049108;28;20111;-58
2021/06/01 08:32:25;;;;;;;6.20;4.10;;;487.10;1638.40;;;;;;5049362;28;20121;-57
2021/06/01 08:34:52;;;;;;;4.18;3.42;;;487.10;1638.40;;;;;;5057210;28;20099;-58
2021/06/01 08:37:18;;;;;;;5.85;3.78;;;486.50;1715.20;;;;;;5058887;28;20021;-59
2021/06/01 08:39:43;;;;;;;6.70;4.20;;;486.50;1715.20;;;;;;5055639;28;20409;-58
2021/06/01 08:42:09;;;;;;;8.15;4.15;;;461.70;1766.40;;;;;;5049303;28;20063;-58
2021/06/01 08:44:35;;;;;;;6.75;3.95;;;461.60;1766.40;;;;;;5049449;28;20056;-58
2021/06/01 08:47:02;;;;;;;6.22;3.90;;;461.50;1740.80;;;;;;5049248;28;20444;-59
2021/06/01 08:49:28;;;;;;;5.47;3.55;;;461.50;1715.20;;;;;;5049167;28;20029;-58
2021/06/01 08:51:54;;;;;;;5.88;3.42;;;461.50;1715.20;;;;;;5049371;28;20033;-58
2021/06/01 08:54:20;;;;;;;6.68;4.03;;;461.60;1689.60;;;;;;5049644;28;20017;-59
2021/06/01 08:56:46;;;;;;;5.95;3.88;;;461.50;1715.20;;;;;;5052982;28;20029;-58
2021/06/01 08:59:13;;;;;;;4.57;3.25;;;461.40;1664.00;;;;;;5052688;28;20072;-58
2021/06/01 09:01:39;;;;;;;15.50;10.40;;;461.50;1689.60;;;;;;5052505;28;20029;-58
2021/06/01 09:04:11;;;;;;;7.60;5.07;;;461.70;1664.00;;;;;;5052856;28;20029;-58
2021/06/01 09:07:01;;;;;;;7.80;4.68;;;486.70;1664.00;;;;;;5050153;28;20032;-58
2021/06/01 09:23:22;;;;;;;5.05;3.67;;;512.60;1510.40;;;;;;4931096;29;20100;-60
2021/06/01 09:25:57;;;;;;;16.08;6.60;;;512.50;1536.00;;;;;;4932311;29;20032;-60
2021/06/01 09:28:23;;;;;;;12.48;9.10;;;512.50;1536.00;;;;;;4931260;29;20047;-58
2021/06/01 09:30:54;;;;;;;27.00;13.15;;;512.20;1536.00;;;;;;4932396;29;20028;-61
2021/06/01 09:33:20;;;;;;;10.23;6.63;;;487.20;1587.20;;;;;;4930247;29;20058;-58
2021/06/01 09:35:57;;;;;;;11.65;6.05;;;487.10;1612.80;;;;;;4932490;29;20040;-58
2021/06/01 09:38:27;;;;;;;15.07;8.77;;;486.90;1612.80;;;;;;4932408;29;20031;-60
2021/06/01 09:41:07;;;;;;;11.77;6.15;;;486.90;1612.80;;;;;;4916092;29;20063;-60
2021/06/01 09:43:35;;;;;;;6.03;4.93;;;487.10;1587.20;;;;;;4913647;29;20040;-60
2021/06/01 09:46:21;;;;;;;15.32;7.38;;;487.30;1561.60;;;;;;4916098;29;20036;-61
2021/06/01 09:48:48;;;;;;;24.13;11.23;;;487.30;1561.60;;;;;;4931597;29;20046;-60
2021/06/01 09:51:37;;;;;;;8.52;5.47;;;487.30;1561.60;;;;;;4932622;29;20170;-59
2021/06/01 09:54:44;;;;;;;11.85;6.15;;;487.10;1561.60;;;;;;4950802;28;20039;-60
2021/06/01 09:57:24;;;;;;;11.68;5.57;;;487.10;1587.20;;;;;;5016938;28;20048;-59
2021/06/01 10:00:18;;;;;;;7.78;5.18;;;487.30;1587.20;;;;;;5060753;28;20091;-60
2021/06/01 10:02:52;;;;;;;5.00;3.90;;;487.30;1587.20;;;;;;5069274;28;20043;-60
2021/06/01 10:05:33;;;;;;;9.95;5.47;;;487.30;1587.20;;;;;;5067228;28;20486;-60
2021/06/01 10:08:10;;;;;;;16.13;8.25;;;487.30;1561.60;;;;;;5069118;28;20035;-60
2021/06/01 10:10:37;;;;;;;6.38;4.95;;;512.00;1536.00;;;;;;5069748;28;20042;-60
2021/06/01 10:13:09;;;;;;;7.60;4.80;;;512.00;1510.40;;;;;;5063756;28;20064;-60
2021/06/01 10:15:37;;;;;;;7.65;5.45;;;512.00;1510.40;;;;;;5058883;28;20025;-58
2021/06/01 10:18:06;;;;;;;30.38;15.15;;;512.30;1536.00;;;;;;5060229;28;20016;-60
2021/06/01 10:20:33;;;;;;;13.00;6.60;;;512.50;1536.00;;;;;;5059751;28;20025;-59
2021/06/01 10:23:01;;;;;;;7.43;5.57;;;512.80;1484.80;;;;;;5049685;28;20033;-60
2021/06/01 10:25:26;;;;;;;13.85;8.38;;;512.70;1484.80;;;;;;5049889;28;20017;-58
2021/06/01 10:27:58;;;;;;;7.00;5.05;;;512.70;1484.80;;;;;;5049565;28;20391;-60
2021/06/01 10:30:24;;;;;;;6.40;4.70;;;537.60;1510.40;;;;;;5049361;28;20091;-61
2021/06/01 10:32:58;;;;;;;9.75;5.55;;;512.90;1484.80;;;;;;5050961;28;20041;-60
2021/06/01 10:35:25;;;;;;;9.40;4.50;;;537.60;1510.40;;;;;;5051559;28;20539;-60
2021/06/01 10:44:33;;;;;;;7.07;4.13;;;512.90;1510.40;;;;;;4950562;29;20051;-59
2021/06/01 10:50:21;;;;;;;6.18;4.40;;;512.30;1561.60;;;;;;4950386;29;20050;-60
2021/06/01 10:53:28;;;;;;;8.23;5.15;;;487.20;1587.20;;;;;;4950476;29;20169;-60
2021/06/01 10:56:01;;;;;;;6.18;3.97;;;487.20;1587.20;;;;;;4950594;29;20046;-59
2021/06/01 10:58:41;;;;;;;11.82;5.13;;;487.00;1612.80;;;;;;4950685;29;20114;-60
2021/06/01 11:07:09;;;;;;;9.32;3.90;;;461.50;1689.60;;;;;;4950568;29;20090;-59
2021/06/01 11:09:34;;;;;;;11.18;5.68;;;461.30;1715.20;;;;;;4950435;29;20393;-59
2021/06/01 11:12:24;;;;;;;11.20;5.70;;;461.20;1715.20;;;;;;4950156;29;20039;-59
2021/06/01 11:14:54;;;;;;;7.93;5.72;;;461.20;1715.20;;;;;;4950270;29;20039;-59
2021/06/01 11:17:43;;;;;;;8.80;6.15;;;461.50;1689.60;;;;;;4960520;28;20038;-60
2021/06/01 11:23:28;;;;;;;10.63;5.40;;;486.70;1638.40;;;;;;5008415;28;20385;-60
2021/06/01 11:34:00;;;;;;;6.80;4.28;;;486.80;1689.60;;;;;;5027708;28;20053;-60
2021/06/01 11:36:38;;;;;;;7.35;4.65;;;486.40;1715.20;;;;;;5028121;28;20047;-59
2021/06/01 11:39:51;;;;;;;10.23;6.45;;;486.40;1715.20;;;;;;5028040;28;20442;-60
2021/06/01 11:44:40;;;;;;;10.57;6.97;;;486.80;1664.00;;;;;;5028016;28;20111;-59
2021/06/01 11:47:31;;;;;;;14.52;10.00;;;487.10;1664.00;;;;;;5027908;28;20740;-60
2021/06/01 11:52:57;;;;;;;9.10;5.32;;;487.30;1638.40;;;;;;5027704;28;20068;-60
2021/06/01 11:55:23;;;;;;;14.48;10.15;;;512.10;1689.60;;;;;;5027996;28;20061;-60
2021/06/01 12:03:19;;;;;;;10.80;6.35;;;512.20;1715.20;;;;;;5027237;28;20036;-59
2021/06/01 12:11:13;;;;;;;8.73;6.20;;;512.20;1638.40;;;;;;5027800;28;20068;-59
2021/06/01 12:11:43;;;;;;;6.40;4.57;;;487.30;1587.20;;;;;;5005148;28;20036;-62
2021/06/01 12:14:30;;;;;;;7.63;4.90;;;487.10;1612.80;;;;;;5049639;28;20021;-60
2021/06/01 12:17:14;;;;;;;7.97;5.05;;;487.00;1587.20;;;;;;5049850;28;20104;-59
2021/06/01 12:19:39;;;;;;;7.00;5.55;;;486.80;1638.40;;;;;;5049531;28;20106;-59
2021/06/01 12:22:05;;;;;;;7.95;6.13;;;487.00;1638.40;;;;;;5049642;28;20084;-59
2021/06/01 12:24:31;;;;;;;6.97;5.10;;;487.20;1638.40;;;;;;5049557;28;20053;-59
2021/06/01 12:27:13;;;;;;;6.45;5.25;;;512.00;1587.20;;;;;;5049022;28;20017;-59
2021/06/01 12:32:29;;;;;;;9.13;5.72;;;512.50;1510.40;;;;;;5053558;28;20051;-60
2021/06/01 12:43:45;;;;;;;6.30;4.40;;;538.00;1536.00;;;;;;5052940;28;20576;-60
2021/06/01 12:46:28;;;;;;;5.35;4.32;;;538.00;1484.80;;;;;;5053094;28;20462;-59
2021/06/01 13:46:10;;;;;;;21.45;10.93;;;537.70;1382.40;;;;;;4990989;28;20411;-59
2021/06/01 13:56:23;;;;;;;10.65;5.63;;;512.70;1459.20;;;;;;4990641;28;20037;-60
2021/06/01 14:56:33;;;;;;;10.93;6.43;;;487.10;1536.00;;;;;;5028813;28;20051;-59
2021/06/01 15:10:18;;;;;;;7.30;4.88;;;487.10;1587.20;;;;;;4969320;28;20073;-60
2021/06/01 15:24:23;;;;;;;12.65;7.55;;;486.80;1689.60;;;;;;4953175;29;20050;-66
2021/06/01 16:11:29;;;;;;;7.80;5.85;;;486.80;1817.60;;;;;;4951610;29;20433;-66
2021/06/01 16:33:37;;;;;;;50.85;40.95;;;461.70;1945.60;;;;;;4952919;29;20046;-60
2021/06/01 17:03:24;;;;;;;61.72;27.13;;;460.80;2124.80;;;;;;5053150;28;20151;-58
2021/06/01 17:05:54;;;;;;;76.95;35.00;;;436.10;2124.80;;;;;;5052719;28;20017;-59
2021/06/01 17:13:48;;;;;;;45.60;21.60;;;435.80;2099.20;;;;;;5052703;28;20048;-60
2021/06/01 17:24:18;;;;;;;46.38;24.10;;;435.60;2150.40;;;;;;4952435;29;20110;-60
2021/06/01 17:34:57;;;;;;;109.90;58.15;;;435.60;2073.60;;;;;;4952010;29;20038;-59
2021/06/01 17:37:24;;;;;;;132.95;64.25;;;435.60;2073.60;;;;;;4952269;29;20071;-60
2021/06/01 17:39:50;;;;;;;45.72;23.92;;;435.60;2022.40;;;;;;4952068;29;20392;-60
2021/06/01 17:42:20;;;;;;;16.30;10.18;;;435.50;2022.40;;;;;;4952045;29;20522;-59
2021/06/01 17:44:48;;;;;;;16.92;10.68;;;435.50;2048.00;;;;;;4952065;29;20027;-60
2021/06/01 17:47:22;;;;;;;13.02;9.25;;;435.50;1996.80;;;;;;4951876;29;20042;-59
2021/06/01 17:49:53;;;;;;;18.20;6.25;;;435.50;1996.80;;;;;;4951595;29;20039;-59
2021/06/01 17:52:25;;;;;;;10.88;7.68;;;435.50;2022.40;;;;;;4951679;29;20031;-59
2021/06/01 17:54:54;;;;;;;11.75;7.60;;;435.40;2022.40;;;;;;4951794;28;20500;-58